createdAt,value
2016-10-25T00:01:04.779Z,91.35
2016-10-25T00:02:15.799Z,92.12
2016-10-25T00:03:26.423Z,92.89
2016-10-25T00:04:37.007Z,91.93
2016-10-25T00:05:47.548Z,92.41
2016-10-25T00:06:58.082Z,93.57
2016-10-25T00:08:08.659Z,94.39
2016-10-25T00:09:19.304Z,94.39
2016-10-25T00:10:29.794Z,95.54
2016-10-25T00:11:40.367Z,93.23
2016-10-25T00:12:50.986Z,92.27
2016-10-25T00:14:01.524Z,97.42
2016-10-25T00:15:12.026Z,99.45
2016-10-25T00:16:22.567Z,99.99
2016-10-25T00:17:33.108Z,99.99
2016-10-25T00:18:43.663Z,99.99
2016-10-25T00:19:54.222Z,99.99
2016-10-25T00:21:04.787Z,99.99
2016-10-25T00:22:15.300Z,99.99
2016-10-25T00:23:25.811Z,99.99
2016-10-25T00:24:36.826Z,99.99
2016-10-25T00:25:47.378Z,99.99
2016-10-25T00:26:58.463Z,99.99
2016-10-25T00:28:09.021Z,99.99
2016-10-25T00:29:19.544Z,99.99
2016-10-25T00:30:30.079Z,99.99
2016-10-25T00:31:40.662Z,99.99
2016-10-25T00:32:51.321Z,99.99
2016-10-25T00:34:01.887Z,99.99
2016-10-25T00:35:12.414Z,99.99
2016-10-25T00:36:22.934Z,99.99
2016-10-25T00:37:33.957Z,99.99
2016-10-25T00:38:44.506Z,99.99
2016-10-25T00:39:55.025Z,99.99
2016-10-25T00:41:05.537Z,99.99
2016-10-25T00:42:16.083Z,99.99
2016-10-25T00:43:26.659Z,99.99
2016-10-25T00:44:37.160Z,99.99
2016-10-25T00:45:47.714Z,99.99
2016-10-25T00:46:58.260Z,99.99
2016-10-25T00:48:08.800Z,99.99
2016-10-25T00:49:19.311Z,99.99
2016-10-25T00:50:29.947Z,99.99
2016-10-25T00:51:40.948Z,99.99
2016-10-25T00:52:51.413Z,99.99
2016-10-25T00:54:01.938Z,99.99
2016-10-25T00:55:12.428Z,99.99
2016-10-25T00:56:23.030Z,99.99
2016-10-25T00:57:33.584Z,99.99
2016-10-25T00:58:44.128Z,99.99
2016-10-25T00:59:54.685Z,99.99
2016-10-25T01:01:05.208Z,99.99
2016-10-25T01:02:15.776Z,99.99
2016-10-25T01:03:26.254Z,99.99
2016-10-25T01:04:36.806Z,99.99
2016-10-25T01:05:47.356Z,99.99
2016-10-25T01:06:57.891Z,99.99
2016-10-25T01:08:08.417Z,99.99
2016-10-25T01:09:18.922Z,99.99
2016-10-25T01:10:29.435Z,99.99
2016-10-25T01:11:39.899Z,99.99
2016-10-25T01:12:50.373Z,99.99
2016-10-25T01:14:00.968Z,99.99
2016-10-25T01:15:11.457Z,99.99
2016-10-25T01:16:21.973Z,99.99
2016-10-25T01:17:32.512Z,99.99
2016-10-25T01:18:42.997Z,99.99
2016-10-25T01:19:53.552Z,99.99
2016-10-25T01:21:04.068Z,99.99
2016-10-25T01:22:14.548Z,99.99
2016-10-25T01:23:25.074Z,99.99
2016-10-25T01:24:35.567Z,99.99
2016-10-25T01:25:46.050Z,99.99
2016-10-25T01:26:56.617Z,99.99
2016-10-25T01:28:07.250Z,99.99
2016-10-25T01:29:17.850Z,99.99
2016-10-25T01:30:28.487Z,99.99
2016-10-25T01:31:39.144Z,99.99
2016-10-25T01:32:49.783Z,99.99
2016-10-25T01:34:00.350Z,99.99
2016-10-25T01:35:10.933Z,99.99
2016-10-25T01:36:21.441Z,99.99
2016-10-25T01:37:32.034Z,99.99
2016-10-25T01:38:42.499Z,99.99
2016-10-25T01:39:52.991Z,99.99
2016-10-25T01:41:03.534Z,99.99
2016-10-25T01:42:14.119Z,99.99
2016-10-25T01:43:24.784Z,99.99
2016-10-25T01:44:35.338Z,99.99
2016-10-25T01:45:45.877Z,99.99
2016-10-25T01:46:56.443Z,99.99
2016-10-25T01:48:07.004Z,99.99
2016-10-25T01:49:17.570Z,99.99
2016-10-25T01:50:28.079Z,99.99
2016-10-25T01:51:38.629Z,99.99
2016-10-25T01:52:49.184Z,99.99
2016-10-25T01:53:59.764Z,99.99
2016-10-25T01:55:10.264Z,99.99
2016-10-25T01:56:20.801Z,99.99
2016-10-25T01:57:31.345Z,99.99
2016-10-25T01:58:41.875Z,99.99
2016-10-25T01:59:52.406Z,99.99
2016-10-25T02:01:03.507Z,99.99
2016-10-25T02:02:14.027Z,99.99
2016-10-25T02:03:24.579Z,99.99
2016-10-25T02:04:35.142Z,99.99
2016-10-25T02:05:45.701Z,99.99
2016-10-25T02:06:56.320Z,99.99
2016-10-25T02:08:06.864Z,99.99
2016-10-25T02:09:17.420Z,99.99
2016-10-25T02:10:28.502Z,99.99
2016-10-25T02:11:39.064Z,99.99
2016-10-25T02:12:49.585Z,99.99
2016-10-25T02:14:00.117Z,99.99
2016-10-25T02:15:10.692Z,99.99
2016-10-25T02:16:21.264Z,99.99
2016-10-25T02:17:32.330Z,99.99
2016-10-25T02:18:42.905Z,99.99
2016-10-25T02:19:53.472Z,99.99
2016-10-25T02:21:23.757Z,99.99
2016-10-25T02:22:34.821Z,99.99
2016-10-25T02:23:45.489Z,99.99
2016-10-25T02:24:56.065Z,99.99
2016-10-25T02:26:06.637Z,99.99
2016-10-25T02:27:17.214Z,99.99
2016-10-25T02:28:27.791Z,99.99
2016-10-25T02:29:38.467Z,99.99
2016-10-25T02:30:49.040Z,99.99
2016-10-25T02:31:59.613Z,99.99
2016-10-25T02:33:10.187Z,99.99
2016-10-25T02:34:20.756Z,99.99
2016-10-25T02:35:31.826Z,99.99
2016-10-25T02:36:42.446Z,99.99
2016-10-25T02:37:53.012Z,99.99
2016-10-25T02:39:03.595Z,99.99
2016-10-25T02:40:14.207Z,99.99
2016-10-25T02:41:24.778Z,99.99
2016-10-25T02:42:35.355Z,99.99
2016-10-25T02:43:45.936Z,99.99
2016-10-25T02:44:56.508Z,99.99
2016-10-25T02:46:07.080Z,99.99
2016-10-25T02:47:17.752Z,99.99
2016-10-25T02:48:28.324Z,99.99
2016-10-25T02:49:38.906Z,99.99
2016-10-25T02:50:49.477Z,99.99
2016-10-25T02:52:00.059Z,99.99
2016-10-25T02:53:10.759Z,99.99
2016-10-25T02:54:21.340Z,99.99
2016-10-25T02:55:31.908Z,99.99
2016-10-25T02:56:42.500Z,99.99
2016-10-25T02:57:53.081Z,99.99
2016-10-25T02:59:03.653Z,99.99
2016-10-25T03:00:14.221Z,99.99
2016-10-25T03:01:24.795Z,99.99
2016-10-25T03:02:35.386Z,99.99
2016-10-25T03:03:45.970Z,99.99
2016-10-25T03:04:56.569Z,99.99
2016-10-25T03:06:07.153Z,99.99
2016-10-25T03:07:17.739Z,99.99
2016-10-25T03:08:28.285Z,99.99
2016-10-25T03:09:38.795Z,99.99
2016-10-25T03:10:49.485Z,99.99
2016-10-25T03:12:00.076Z,99.99
2016-10-25T03:13:10.547Z,99.99
2016-10-25T03:14:21.063Z,99.99
2016-10-25T03:15:31.646Z,99.99
2016-10-25T03:16:42.161Z,99.99
2016-10-25T03:17:52.646Z,99.99
2016-10-25T03:19:03.217Z,99.99
2016-10-25T03:20:13.770Z,99.99
2016-10-25T03:21:24.305Z,99.99
2016-10-25T03:22:34.870Z,99.99
2016-10-25T03:23:45.443Z,99.99
2016-10-25T03:24:55.943Z,99.99
2016-10-25T03:26:06.508Z,99.99
2016-10-25T03:27:17.015Z,99.99
2016-10-25T03:28:27.692Z,99.99
2016-10-25T03:29:38.235Z,99.99
2016-10-25T03:30:49.280Z,99.99
2016-10-25T03:31:59.850Z,99.99
2016-10-25T03:33:10.384Z,99.99
2016-10-25T03:34:20.902Z,99.99
2016-10-25T03:35:31.893Z,99.99
2016-10-25T03:36:42.453Z,99.99
2016-10-25T03:37:52.982Z,99.99
2016-10-25T03:39:03.570Z,99.99
2016-10-25T03:40:14.301Z,99.99
2016-10-25T03:41:24.853Z,99.99
2016-10-25T03:42:35.395Z,99.99
2016-10-25T03:43:45.899Z,99.99
2016-10-25T03:44:56.401Z,99.99
2016-10-25T03:46:07.019Z,99.99
2016-10-25T03:47:17.518Z,99.99
2016-10-25T03:48:28.066Z,99.99
2016-10-25T03:49:38.586Z,99.99
2016-10-25T03:50:49.122Z,99.99
2016-10-25T03:51:59.632Z,99.99
2016-10-25T03:53:10.154Z,99.99
2016-10-25T03:54:20.632Z,99.99
2016-10-25T03:55:31.165Z,99.99
2016-10-25T03:56:41.687Z,99.99
2016-10-25T03:57:52.472Z,99.99
2016-10-25T03:59:02.954Z,99.99
2016-10-25T04:00:13.430Z,99.99
2016-10-25T04:01:24.000Z,99.99
2016-10-25T04:02:34.510Z,99.99
2016-10-25T04:03:45.066Z,99.99
2016-10-25T04:04:55.656Z,99.99
2016-10-25T04:06:06.171Z,99.99
2016-10-25T04:07:16.742Z,99.99
2016-10-25T04:08:27.785Z,99.99
2016-10-25T04:09:38.456Z,99.99
2016-10-25T04:10:49.000Z,99.99
2016-10-25T04:11:59.554Z,99.99
2016-10-25T04:13:10.127Z,99.99
2016-10-25T04:14:20.667Z,99.99
2016-10-25T04:15:31.343Z,99.99
2016-10-25T04:16:41.925Z,99.99
2016-10-25T04:17:52.552Z,99.99
2016-10-25T04:19:03.568Z,99.99
2016-10-25T04:20:14.072Z,99.99
2016-10-25T04:21:24.613Z,99.99
2016-10-25T04:22:35.139Z,99.99
2016-10-25T04:23:45.735Z,99.99
2016-10-25T04:24:56.260Z,99.99
2016-10-25T04:26:06.828Z,99.99
2016-10-25T04:27:17.533Z,99.99
2016-10-25T04:28:28.075Z,99.99
2016-10-25T04:29:38.619Z,99.99
2016-10-25T04:30:49.154Z,99.99
2016-10-25T04:31:59.740Z,99.99
2016-10-25T04:33:10.919Z,99.99
2016-10-25T04:34:21.451Z,99.99
2016-10-25T04:35:31.987Z,99.99
2016-10-25T04:36:42.521Z,99.99
2016-10-25T04:37:53.067Z,99.99
2016-10-25T04:39:03.800Z,99.99
2016-10-25T04:40:14.304Z,99.99
2016-10-25T04:41:24.853Z,99.99
2016-10-25T04:42:35.903Z,99.99
2016-10-25T04:43:46.387Z,99.99
2016-10-25T04:44:56.902Z,99.99
2016-10-25T04:46:07.453Z,99.99
2016-10-25T04:47:17.952Z,99.99
2016-10-25T04:48:28.502Z,99.99
2016-10-25T04:49:39.009Z,99.99
2016-10-25T04:50:49.861Z,99.99
2016-10-25T04:52:00.357Z,99.99
2016-10-25T04:53:10.866Z,99.99
2016-10-25T04:54:21.368Z,99.99
2016-10-25T04:55:31.886Z,99.99
2016-10-25T04:56:42.422Z,99.99
2016-10-25T04:57:52.980Z,99.99
2016-10-25T04:59:03.490Z,99.99
2016-10-25T05:00:14.520Z,99.99
2016-10-25T05:01:25.033Z,99.99
2016-10-25T05:02:35.551Z,99.99
2016-10-25T05:03:46.612Z,99.99
2016-10-25T05:04:57.127Z,99.99
2016-10-25T05:06:07.675Z,99.99
2016-10-25T05:07:18.200Z,99.99
2016-10-25T05:08:28.844Z,99.99
2016-10-25T05:09:39.394Z,99.99
2016-10-25T05:10:49.966Z,99.99
2016-10-25T05:12:00.510Z,99.99
2016-10-25T05:13:11.100Z,99.99
2016-10-25T05:14:21.676Z,99.99
2016-10-25T05:15:32.226Z,99.99
2016-10-25T05:16:42.748Z,99.99
2016-10-25T05:17:53.286Z,99.99
2016-10-25T05:20:58.270Z,99.99
2016-10-25T05:22:08.811Z,99.99
2016-10-25T05:23:19.351Z,99.99
2016-10-25T05:24:29.935Z,99.99
2016-10-25T05:25:40.478Z,99.99
2016-10-25T05:26:51.082Z,99.99
2016-10-25T05:28:01.629Z,99.99
2016-10-25T05:29:12.156Z,99.99
2016-10-25T05:30:23.162Z,99.99
2016-10-25T05:31:33.744Z,99.99
2016-10-25T05:32:44.369Z,99.99
2016-10-25T05:33:54.871Z,99.99
2016-10-25T05:35:05.388Z,99.99
2016-10-25T05:36:15.906Z,99.99
2016-10-25T05:37:26.419Z,99.99
2016-10-25T05:38:36.975Z,99.99
2016-10-25T05:39:47.592Z,99.99
2016-10-25T05:40:58.117Z,99.99
2016-10-25T05:42:08.684Z,99.99
2016-10-25T05:43:19.222Z,99.99
2016-10-25T05:44:29.744Z,99.99
2016-10-25T05:45:40.314Z,99.99
2016-10-25T05:46:50.820Z,99.99
2016-10-25T05:48:01.341Z,99.99
2016-10-25T05:49:11.881Z,99.99
2016-10-25T05:50:22.522Z,99.99
2016-10-25T05:51:32.992Z,99.99
2016-10-25T05:52:43.488Z,99.99
2016-10-25T05:53:54.006Z,99.99
2016-10-25T05:55:04.605Z,99.99
2016-10-25T05:56:15.166Z,99.99
2016-10-25T05:57:25.686Z,99.99
2016-10-25T05:58:36.204Z,99.99
2016-10-25T05:59:46.705Z,99.99
2016-10-25T06:00:57.211Z,99.99
2016-10-25T06:02:07.777Z,99.99
2016-10-25T06:03:18.357Z,99.99
2016-10-25T06:04:28.909Z,99.99
2016-10-25T06:05:39.457Z,99.99
2016-10-25T06:06:49.992Z,99.99
2016-10-25T06:08:00.597Z,99.99
2016-10-25T06:09:11.062Z,99.99
2016-10-25T06:10:21.518Z,99.99
2016-10-25T06:11:31.980Z,99.99
2016-10-25T06:12:42.427Z,99.99
2016-10-25T06:13:52.991Z,99.99
2016-10-25T06:15:03.453Z,99.99
2016-10-25T06:16:13.916Z,99.99
2016-10-25T06:17:24.377Z,99.99
2016-10-25T06:18:34.832Z,99.99
2016-10-25T06:19:45.289Z,99.99
2016-10-25T06:20:55.738Z,99.99
2016-10-25T06:22:06.234Z,99.99
2016-10-25T06:23:16.692Z,99.99
2016-10-25T06:24:27.148Z,99.99
2016-10-25T06:25:37.610Z,99.99
2016-10-25T06:26:48.063Z,99.99
2016-10-25T06:27:58.549Z,99.99
2016-10-25T06:29:08.992Z,99.99
2016-10-25T06:30:19.937Z,99.99
2016-10-25T06:31:30.516Z,99.99
2016-10-25T06:32:40.975Z,99.99
2016-10-25T06:33:51.441Z,99.99
2016-10-25T06:35:01.899Z,99.99
2016-10-25T06:36:12.355Z,99.99
2016-10-25T06:37:22.921Z,99.99
2016-10-25T06:38:33.412Z,99.99
2016-10-25T06:39:43.888Z,99.99
2016-10-25T06:40:54.405Z,99.99
2016-10-25T06:42:05.401Z,99.99
2016-10-25T06:43:15.889Z,99.99
2016-10-25T06:44:26.409Z,99.99
2016-10-25T06:45:36.908Z,99.99
2016-10-25T06:46:47.847Z,99.99
2016-10-25T06:47:58.346Z,99.99
2016-10-25T06:49:08.863Z,99.99
2016-10-25T06:50:19.339Z,99.99
2016-10-25T06:51:29.839Z,99.99
2016-10-25T06:52:40.339Z,99.99
2016-10-25T06:53:51.334Z,99.99
2016-10-25T06:55:01.919Z,99.99
2016-10-25T06:56:12.434Z,99.99
2016-10-25T06:57:22.977Z,99.99
2016-10-25T06:58:33.930Z,99.99
2016-10-25T06:59:44.380Z,99.99
2016-10-25T07:00:54.954Z,99.99
2016-10-25T07:02:05.449Z,99.99
2016-10-25T07:03:15.927Z,99.99
2016-10-25T07:04:26.391Z,99.99
2016-10-25T07:05:36.931Z,99.99
2016-10-25T07:06:47.398Z,99.99
2016-10-25T07:07:57.897Z,99.99
2016-10-25T07:09:08.833Z,99.99
2016-10-25T07:10:19.320Z,99.99
2016-10-25T07:11:30.315Z,99.99
2016-10-25T07:12:40.860Z,99.99
2016-10-25T07:13:52.351Z,99.99
2016-10-25T07:15:02.848Z,99.99
2016-10-25T07:16:13.336Z,99.99
2016-10-25T07:17:23.833Z,99.99
2016-10-25T07:18:34.486Z,99.99
2016-10-25T07:19:44.979Z,99.99
2016-10-25T07:20:55.438Z,99.99
2016-10-25T07:22:05.942Z,99.99
2016-10-25T07:23:16.417Z,99.99
2016-10-25T07:24:26.994Z,99.99
2016-10-25T07:25:37.507Z,99.99
2016-10-25T07:26:48.052Z,99.99
2016-10-25T07:27:58.541Z,99.99
2016-10-25T07:29:09.079Z,99.99
2016-10-25T07:30:19.608Z,99.99
2016-10-25T07:31:30.106Z,99.99
2016-10-25T07:32:40.598Z,99.99
2016-10-25T07:33:51.142Z,99.99
2016-10-25T07:35:01.661Z,99.99
2016-10-25T07:36:12.185Z,99.99
2016-10-25T07:37:22.686Z,99.99
2016-10-25T07:38:33.145Z,99.99
2016-10-25T07:39:43.630Z,99.99
2016-10-25T07:40:54.131Z,99.99
2016-10-25T07:42:04.706Z,99.99
2016-10-25T07:43:15.193Z,99.99
2016-10-25T07:44:25.699Z,99.99
2016-10-25T07:45:36.229Z,99.99
2016-10-25T07:46:46.701Z,99.99
2016-10-25T07:47:57.316Z,99.99
2016-10-25T07:49:07.831Z,99.99
2016-10-25T07:50:18.410Z,99.99
2016-10-25T07:51:28.966Z,99.99
2016-10-25T07:52:39.520Z,99.99
2016-10-25T07:53:50.026Z,99.99
2016-10-25T07:55:00.582Z,99.99
2016-10-25T07:56:11.132Z,99.99
2016-10-25T07:57:21.639Z,99.99
2016-10-25T07:58:32.195Z,99.99
2016-10-25T07:59:42.804Z,99.99
2016-10-25T08:00:53.344Z,99.99
2016-10-25T08:02:03.843Z,99.99
2016-10-25T08:03:14.307Z,99.99
2016-10-25T08:04:24.844Z,99.99
2016-10-25T08:05:35.464Z,99.99
2016-10-25T08:06:46.003Z,99.99
2016-10-25T08:07:56.557Z,99.99
2016-10-25T08:09:07.107Z,99.99
2016-10-25T08:10:17.636Z,99.99
2016-10-25T08:11:28.262Z,99.99
2016-10-25T08:12:39.308Z,99.99
2016-10-25T08:13:49.841Z,99.99
2016-10-25T08:15:00.395Z,99.99
2016-10-25T08:16:10.985Z,99.99
2016-10-25T08:17:21.551Z,99.99
2016-10-25T08:18:32.583Z,99.99
2016-10-25T08:19:43.120Z,99.99
2016-10-25T08:20:53.636Z,99.99
2016-10-25T08:22:04.236Z,99.99
2016-10-25T08:23:14.812Z,99.99
2016-10-25T08:24:25.392Z,99.99
2016-10-25T08:25:35.959Z,99.99
2016-10-25T08:26:46.533Z,99.99
2016-10-25T08:27:57.149Z,99.99
2016-10-25T08:29:07.834Z,99.99
2016-10-25T08:30:18.398Z,99.99
2016-10-25T08:31:28.991Z,99.99
2016-10-25T08:32:40.059Z,99.99
2016-10-25T08:33:51.118Z,99.99
2016-10-25T08:35:01.802Z,99.99
2016-10-25T08:36:12.419Z,99.99
2016-10-25T08:37:22.993Z,99.99
2016-10-25T08:38:33.566Z,99.99
2016-10-25T08:39:44.176Z,99.99
2016-10-25T08:40:54.737Z,99.99
2016-10-25T08:42:05.345Z,99.99
2016-10-25T08:43:15.933Z,99.99
2016-10-25T08:44:26.507Z,99.99
2016-10-25T08:45:37.072Z,99.99
2016-10-25T08:46:47.651Z,99.99
2016-10-25T08:47:58.713Z,99.99
2016-10-25T08:49:09.286Z,99.99
2016-10-25T08:50:19.849Z,99.99
2016-10-25T08:51:30.415Z,99.99
2016-10-25T08:52:41.153Z,99.99
2016-10-25T08:53:52.229Z,99.99
2016-10-25T08:55:02.800Z,99.99
2016-10-25T08:56:13.380Z,99.99
2016-10-25T08:57:23.958Z,99.99
2016-10-25T08:58:34.622Z,99.99
2016-10-25T08:59:45.178Z,99.99
2016-10-25T09:00:55.751Z,99.99
2016-10-25T09:02:06.323Z,99.99
2016-10-25T09:03:16.901Z,99.99
2016-10-25T09:04:27.481Z,99.99
2016-10-25T09:05:38.054Z,99.99
2016-10-25T09:06:48.626Z,99.99
2016-10-25T09:07:59.199Z,99.99
2016-10-25T09:09:09.781Z,99.99
2016-10-25T09:10:20.456Z,99.99
2016-10-25T09:11:31.042Z,99.99
2016-10-25T09:12:41.604Z,99.99
2016-10-25T09:13:52.196Z,99.99
2016-10-25T09:15:02.775Z,99.99
2016-10-25T09:16:13.486Z,99.99
2016-10-25T09:17:24.564Z,99.99
2016-10-25T09:18:35.134Z,99.99
2016-10-25T09:19:45.710Z,99.99
2016-10-25T09:20:56.274Z,99.99
2016-10-25T09:22:06.850Z,99.99
2016-10-25T09:23:17.912Z,99.99
2016-10-25T09:24:28.490Z,99.99
2016-10-25T09:25:39.065Z,99.99
2016-10-25T09:26:49.641Z,99.99
2016-10-25T09:28:00.317Z,99.99
2016-10-25T09:29:10.911Z,99.99
2016-10-25T09:30:21.495Z,99.99
2016-10-25T09:31:32.071Z,99.99
2016-10-25T09:32:42.639Z,99.99
2016-10-25T09:33:53.355Z,99.99
2016-10-25T09:35:03.929Z,99.99
2016-10-25T09:36:14.499Z,99.99
2016-10-25T09:37:25.080Z,99.99
2016-10-25T09:38:35.664Z,99.99
2016-10-25T09:39:46.236Z,99.99
2016-10-25T09:40:56.804Z,99.99
2016-10-25T09:42:07.378Z,99.99
2016-10-25T09:43:17.961Z,99.99
2016-10-25T09:44:28.523Z,99.99
2016-10-25T09:45:39.230Z,99.99
2016-10-25T09:46:49.802Z,99.99
2016-10-25T09:48:00.378Z,99.99
2016-10-25T09:49:11.006Z,99.99
2016-10-25T09:50:21.584Z,99.99
2016-10-25T09:51:32.247Z,99.99
2016-10-25T09:52:42.820Z,99.99
2016-10-25T09:53:53.396Z,99.99
2016-10-25T09:55:03.968Z,99.99
2016-10-25T09:56:14.549Z,99.99
2016-10-25T09:57:25.124Z,99.99
2016-10-25T09:58:35.697Z,99.99
2016-10-25T09:59:46.317Z,99.99
2016-10-25T10:00:56.859Z,99.99
2016-10-25T10:02:07.375Z,99.99
2016-10-25T10:03:18.001Z,99.99
2016-10-25T10:04:28.507Z,99.99
2016-10-25T10:05:38.985Z,99.99
2016-10-25T10:06:49.500Z,99.99
2016-10-25T10:08:00.095Z,99.99
2016-10-25T10:09:10.773Z,99.99
2016-10-25T10:10:21.314Z,99.99
2016-10-25T10:11:31.799Z,99.99
2016-10-25T10:12:42.252Z,99.99
2016-10-25T10:13:52.734Z,99.99
2016-10-25T10:15:03.203Z,99.99
2016-10-25T10:16:13.701Z,99.99
2016-10-25T10:17:24.173Z,99.99
2016-10-25T10:18:34.684Z,99.99
2016-10-25T10:19:45.183Z,99.99
2016-10-25T10:20:55.791Z,99.99
2016-10-25T10:22:06.245Z,99.99
2016-10-25T10:23:16.793Z,99.99
2016-10-25T10:24:27.258Z,99.99
2016-10-25T10:25:37.779Z,99.99
2016-10-25T10:26:48.393Z,99.99
2016-10-25T10:27:58.861Z,99.99
2016-10-25T10:29:09.341Z,99.99
2016-10-25T10:30:19.833Z,99.99
2016-10-25T10:31:30.311Z,99.99
2016-10-25T10:32:40.920Z,99.99
2016-10-25T10:33:51.467Z,99.99
2016-10-25T10:35:01.980Z,99.99
2016-10-25T10:36:12.464Z,99.99
2016-10-25T10:37:22.967Z,99.99
2016-10-25T10:38:33.564Z,99.99
2016-10-25T10:39:44.078Z,99.99
2016-10-25T10:40:54.552Z,99.99
2016-10-25T10:42:05.107Z,99.99
2016-10-25T10:43:15.620Z,99.99
2016-10-25T10:44:26.161Z,99.99
2016-10-25T10:45:36.687Z,99.99
2016-10-25T10:46:47.178Z,99.99
2016-10-25T10:47:57.672Z,99.99
2016-10-25T10:49:08.220Z,99.99
2016-10-25T10:50:18.902Z,99.99
2016-10-25T10:51:29.401Z,99.99
2016-10-25T10:52:39.917Z,99.99
2016-10-25T10:53:50.922Z,99.99
2016-10-25T10:55:01.444Z,99.99
2016-10-25T10:56:11.949Z,99.99
2016-10-25T10:57:22.445Z,99.99
2016-10-25T10:58:32.933Z,99.99
2016-10-25T10:59:43.454Z,99.99
2016-10-25T11:00:54.010Z,99.99
2016-10-25T11:02:04.618Z,99.99
2016-10-25T11:03:15.164Z,99.99
2016-10-25T11:04:25.642Z,99.99
2016-10-25T11:05:36.146Z,99.99
2016-10-25T11:06:46.672Z,99.99
2016-10-25T11:07:57.282Z,99.99
2016-10-25T11:09:07.808Z,99.99
2016-10-25T11:10:18.327Z,99.99
2016-10-25T11:11:28.896Z,99.99
2016-10-25T11:12:39.454Z,99.99
2016-10-25T11:13:50.597Z,99.99
2016-10-25T11:15:01.113Z,99.99
2016-10-25T11:16:12.132Z,99.99
2016-10-25T11:17:22.691Z,99.99
2016-10-25T11:18:33.270Z,99.99
2016-10-25T11:19:43.744Z,99.99
2016-10-25T11:20:54.256Z,99.99
2016-10-25T11:22:04.740Z,99.99
2016-10-25T11:23:15.276Z,99.99
2016-10-25T11:24:25.839Z,99.99
2016-10-25T11:25:36.498Z,99.99
2016-10-25T11:26:46.998Z,99.99
2016-10-25T11:27:57.560Z,99.99
2016-10-25T11:29:08.143Z,99.99
2016-10-25T11:30:18.669Z,99.99
2016-10-25T11:31:29.294Z,99.99
2016-10-25T11:32:39.857Z,99.99
2016-10-25T11:33:50.435Z,99.99
2016-10-25T11:35:00.965Z,99.99
2016-10-25T11:36:11.522Z,99.99
2016-10-25T11:37:22.182Z,99.99
2016-10-25T11:38:32.718Z,99.99
2016-10-25T11:39:43.232Z,99.99
2016-10-25T11:40:53.724Z,99.99
2016-10-25T11:42:04.691Z,99.99
2016-10-25T11:43:15.216Z,99.99
2016-10-25T11:44:25.815Z,99.99
2016-10-25T11:45:36.345Z,99.99
2016-10-25T11:46:46.870Z,99.99
2016-10-25T11:47:57.367Z,99.99
2016-10-25T11:49:08.048Z,99.99
2016-10-25T11:50:18.657Z,99.99
2016-10-25T11:51:30.146Z,99.99
2016-10-25T11:52:40.656Z,99.99
2016-10-25T11:53:51.202Z,99.99
2016-10-25T11:55:01.746Z,99.99
2016-10-25T11:56:12.283Z,99.99
2016-10-25T11:57:22.836Z,99.99
2016-10-25T11:58:33.378Z,99.84
2016-10-25T11:59:43.894Z,99.99
2016-10-25T12:00:54.572Z,98.77
2016-10-25T12:02:05.149Z,95.69
2016-10-25T12:03:15.712Z,98.39
2016-10-25T12:04:26.245Z,95.31
2016-10-25T12:05:36.768Z,94.63
2016-10-25T12:06:47.385Z,94.63
2016-10-25T12:07:57.926Z,95.69
2016-10-25T12:09:08.459Z,94.73
2016-10-25T12:10:19.011Z,96.75
2016-10-25T12:11:29.522Z,95.4
2016-10-25T12:12:40.550Z,93.52
2016-10-25T12:13:51.098Z,93.81
2016-10-25T12:15:01.617Z,90.34
2016-10-25T12:16:12.173Z,91.78
2016-10-25T12:17:22.699Z,91.88
2016-10-25T12:18:33.325Z,89.76
2016-10-25T12:19:43.895Z,89.86
2016-10-25T12:20:54.471Z,91.6
2016-10-25T12:22:05.039Z,91.69
2016-10-25T12:23:15.565Z,91.3
2016-10-25T12:24:26.185Z,90.05
2016-10-25T12:25:36.744Z,91.4
2016-10-25T12:26:47.269Z,91.88
2016-10-25T12:27:57.830Z,91.83
2016-10-25T12:29:08.833Z,91.11
2016-10-25T12:30:19.434Z,91.5
2016-10-25T12:31:29.962Z,94.58
2016-10-25T12:32:40.472Z,94.87
2016-10-25T12:33:51.043Z,97.09
2016-10-25T12:35:01.570Z,96.8
2016-10-25T12:36:12.702Z,93.43
2016-10-25T12:37:23.674Z,92.75
2016-10-25T12:38:34.267Z,96.61
2016-10-25T12:39:44.825Z,95.45
2016-10-25T12:40:55.334Z,98.34
2016-10-25T12:42:05.882Z,96.66
2016-10-25T12:43:16.397Z,98.77
2016-10-25T12:44:26.951Z,99.99
2016-10-25T12:45:37.502Z,99.99
2016-10-25T12:46:48.009Z,99.26
2016-10-25T12:47:58.610Z,99.99
2016-10-25T12:49:09.152Z,99.99
2016-10-25T12:50:19.649Z,99.64
2016-10-25T12:51:30.170Z,99.16
2016-10-25T12:52:40.661Z,99.84
2016-10-25T12:53:51.283Z,99.99
2016-10-25T12:55:01.863Z,99.99
2016-10-25T12:56:12.420Z,99.99
2016-10-25T12:57:22.988Z,99.64
2016-10-25T12:58:33.486Z,99.99
2016-10-25T12:59:44.099Z,99.99
2016-10-25T13:00:54.620Z,99.99
2016-10-25T13:02:05.158Z,99.26
2016-10-25T13:03:15.692Z,99.99
2016-10-25T13:04:26.191Z,99.74
2016-10-25T13:05:36.740Z,99.99
2016-10-25T13:06:47.283Z,99.99
2016-10-25T13:07:57.821Z,99.99
2016-10-25T13:09:08.376Z,99.99
2016-10-25T13:10:18.900Z,99.99
2016-10-25T13:11:29.550Z,99.99
2016-10-25T13:12:40.067Z,99.99
2016-10-25T13:13:50.600Z,99.99
2016-10-25T13:15:01.190Z,99.99
2016-10-25T13:16:11.775Z,99.99
2016-10-25T13:17:22.398Z,99.99
2016-10-25T13:18:32.928Z,99.99
2016-10-25T13:19:43.449Z,99.99
2016-10-25T13:20:53.992Z,99.99
2016-10-25T13:22:04.577Z,99.99
2016-10-25T13:23:15.148Z,99.99
2016-10-25T13:24:26.225Z,99.99
2016-10-25T13:25:37.338Z,99.99
2016-10-25T13:26:47.929Z,99.99
2016-10-25T13:27:58.506Z,99.99
2016-10-25T13:29:09.179Z,99.99
2016-10-25T13:30:20.262Z,99.99
2016-10-25T13:31:31.330Z,99.99
2016-10-25T13:32:41.916Z,99.35
2016-10-25T13:33:52.500Z,99.99
2016-10-25T13:35:03.126Z,99.99
2016-10-25T13:36:13.718Z,99.99
2016-10-25T13:37:24.298Z,99.99
2016-10-25T13:38:34.884Z,99.99
2016-10-25T13:39:45.504Z,99.99
2016-10-25T13:40:56.234Z,99.99
2016-10-25T13:42:06.812Z,99.99
2016-10-25T13:43:17.386Z,99.99
2016-10-25T13:44:27.968Z,99.99
2016-10-25T13:45:38.547Z,99.99
2016-10-25T13:46:49.231Z,99.99
2016-10-25T13:47:59.808Z,99.93
2016-10-25T13:49:10.374Z,99.99
2016-10-25T13:50:20.959Z,99.99
2016-10-25T13:51:31.540Z,99.99
2016-10-25T13:52:42.222Z,99.99
2016-10-25T13:53:52.795Z,99.99
2016-10-25T13:55:03.375Z,99.99
2016-10-25T13:56:13.959Z,99.99
2016-10-25T13:57:24.543Z,99.69
2016-10-25T13:58:35.127Z,99.99
2016-10-25T13:59:45.712Z,99.99
2016-10-25T14:00:56.305Z,99.99
2016-10-25T14:02:07.594Z,98.92
2016-10-25T14:03:18.668Z,98.44
2016-10-25T14:04:29.340Z,98.87
2016-10-25T14:05:39.914Z,99.16
2016-10-25T14:06:50.490Z,99.99
2016-10-25T14:08:01.078Z,99.74
2016-10-25T14:09:11.689Z,99.84
2016-10-25T14:10:22.872Z,98.25
2016-10-25T14:11:33.449Z,98.34
2016-10-25T14:12:44.030Z,98.87
2016-10-25T14:13:54.617Z,97.33
2016-10-25T14:15:05.196Z,97.52
2016-10-25T14:16:15.790Z,96.51
2016-10-25T14:17:26.376Z,96.99
2016-10-25T14:18:36.970Z,92.16
2016-10-25T14:19:47.588Z,92.84
2016-10-25T14:20:58.214Z,94.73
2016-10-25T14:22:08.915Z,93.28
2016-10-25T14:23:19.502Z,93.32
2016-10-25T14:24:30.582Z,96.31
2016-10-25T14:25:41.170Z,93.71
2016-10-25T14:26:52.248Z,94.77
2016-10-25T14:28:02.846Z,93.04
2016-10-25T14:29:13.408Z,93.42
2016-10-25T14:30:23.953Z,92.36
2016-10-25T14:31:34.491Z,96.41
2016-10-25T14:32:45.545Z,98.44
2016-10-25T14:33:56.181Z,96.99
2016-10-25T14:35:06.686Z,96.61
2016-10-25T14:36:17.237Z,94
2016-10-25T14:37:27.758Z,91.3
2016-10-25T14:38:38.247Z,96.03
2016-10-25T14:39:48.833Z,93.37
2016-10-25T14:40:59.362Z,96.08
2016-10-25T14:42:09.938Z,92.69
2016-10-25T14:43:20.494Z,94.14
2016-10-25T14:44:31.566Z,97.24
2016-10-25T14:45:42.252Z,93.56
2016-10-25T14:46:53.231Z,92.89
2016-10-25T14:48:03.757Z,93.85
2016-10-25T14:49:14.308Z,95.11
2016-10-25T14:50:25.380Z,96.66
2016-10-25T14:51:36.398Z,93.95
2016-10-25T14:52:46.907Z,95.3
2016-10-25T14:53:57.492Z,95.54
2016-10-25T14:55:08.070Z,94.04
2016-10-25T14:56:19.116Z,92.74
2016-10-25T14:57:29.784Z,93.8
2016-10-25T14:58:40.331Z,96.22
2016-10-25T14:59:50.911Z,94.38
2016-10-25T15:01:01.453Z,96.8
2016-10-25T15:02:11.979Z,99.99
2016-10-25T15:03:22.587Z,99.99
2016-10-25T15:04:33.125Z,95.45
2016-10-25T15:05:43.664Z,99.84
2016-10-25T15:06:54.722Z,99.99
2016-10-25T15:08:05.263Z,99.99
2016-10-25T15:09:15.810Z,99.99
2016-10-25T15:10:31.356Z,99.99
2016-10-25T15:11:41.924Z,99.99
2016-10-25T15:12:52.464Z,98.58